Terminal Aerodrome Forecast
Issued by NWS

Home | Current Version | Previous Version | Text Only | Print | Product List | Glossary On
Versions: 1 2 3 4 5 6 7 8 9 10 11 12
635
FTUS42 TJSJ 292320
TAFNCM
TAF
TNCM 292320Z 3000/3024 12007KT P6SM FEW020
     FM300300 09007KT P6SM VCSH SCT018
     FM300900 07004KT P6SM FEW020 SCT035
     FM301400 13012KT P6SM FEW024=

USA.gov is the U.S. government's official web portal to all federal, state and local government web resources and services.